Latest Weather Observations for Toowoomba

IDQ60901

Issued at 4:41 pm EST Sunday 11 April 2021 (issued every 10 minutes, with the page automatically refreshed every 10 minutes)

About weather observations | Map of Brisbane area stations | Latest observations for Brisbane area | Other Formats
Station Details ID: 041529 Name: TOOWOOMBA AIRPORT Lat: -27.54 Lon: 151.91 Height: 640.9 m
Data from the previous 72 hours. | See also: Recent months at Toowoomba
Date/Time
EST
Temp
°C
App
Temp
°C
Dew
Point
°C
Rel
Hum
%
Delta-T
°C
Wind Press
QNH
hPa
Press
MSL
hPa
Rain since
9am
mm
Dir  Spd
km/h
Gust
km/h
Spd
kts
Gust
kts
11/04:30pm 20.3 14.3 5.1 37 7.7 SW 26 37 14 20 1014.1 1011.6 0.0
11/04:00pm 21.0 14.9 5.0 35 8.1 WSW 26 39 14 21 1013.9 1011.4 0.0
11/03:30pm 21.6 15.0 4.2 32 8.7 WSW 28 39 15 21 1013.7 1011.2 0.0
11/03:00pm 21.6 15.8 6.3 37 8.0 WSW 26 35 14 19 1013.4 1011.0 0.0
11/02:30pm 21.5 15.6 7.7 41 7.4 WSW 28 39 15 21 1013.3 1010.8 0.0
11/02:00pm 21.5 15.5 7.0 39 7.7 WSW 28 39 15 21 1013.3 1010.8 0.0
11/01:30pm 21.8 15.6 8.0 41 7.4 WSW 30 41 16 22 1013.3 1010.8 0.0
11/01:00pm 22.0 16.6 8.2 41 7.5 WSW 26 35 14 19 1013.3 1010.8 0.0
11/12:30pm 21.5 16.7 8.7 44 7.0 SW 24 37 13 20 1013.7 1011.2 0.0
11/12:00pm 21.2 15.4 8.1 43 7.1 SW 28 37 15 20 1014.1 1011.6 0.0
11/11:30am 21.3 15.2 8.2 43 7.1 WSW 30 41 16 22 1014.4 1011.9 0.0
11/11:00am 20.4 14.7 8.4 46 6.5 WSW 28 39 15 21 1014.7 1012.2 0.0
11/10:30am 19.7 14.4 8.4 48 6.1 SW 26 35 14 19 1015.1 1012.7 0.0
11/10:00am 19.2 12.9 7.6 47 6.1 SW 30 35 16 19 1015.1 1012.7 0.0
11/09:30am 18.3 12.2 6.5 46 6.1 SW 28 39 15 21 1015.3 1012.8 0.0
11/09:00am 17.6 13.5 8.7 56 4.7 SW 20 30 11 16 1015.1 1012.7 0.0
11/08:30am 16.6 13.0 9.8 64 3.7 SW 19 26 10 14 1015.1 1012.7 0.0
11/08:00am 16.0 13.1 11.0 72 2.8 WSW 17 24 9 13 1014.9 1012.5 0.0
11/07:30am 15.6 13.0 10.6 72 2.7 SW 15 19 8 10 1014.5 1012.0 0.0
11/07:00am 14.7 12.9 10.7 77 2.2 WSW 11 15 6 8 1014.1 1011.6 0.0
11/06:30am 14.1 13.0 10.7 80 1.8 WNW 7 9 4 5 1013.9 1011.4 0.0
11/06:00am 14.0 12.4 10.2 78 2.0 W 9 11 5 6 1013.7 1011.2 0.0
11/05:30am 14.2 13.0 10.2 77 2.2 W 7 9 4 5 1013.1 1010.6 0.0
11/05:00am 14.3 13.0 9.9 75 2.4 W 7 11 4 6 1012.8 1010.3 0.0
11/04:30am 14.8 13.1 10.0 73 2.6 W 9 11 5 6 1012.4 1009.9 0.0
11/04:00am 15.3 13.6 9.7 69 3.0 W 9 11 5 6 1012.3 1009.8 0.0
11/03:30am 16.2 14.3 9.2 63 3.7 W 9 11 5 6 1012.0 1009.4 0.0
11/03:00am 17.8 15.1 8.9 56 4.8 SW 13 19 7 10 1011.6 1009.1 0.0
11/02:30am 18.0 15.6 8.8 55 4.9 SW 11 15 6 8 1011.8 1009.3 0.0
11/02:00am 18.1 15.5 9.2 56 4.8 SW 13 17 7 9 1012.3 1009.8 0.0
11/01:30am 17.9 15.2 9.0 56 4.8 SSW 13 17 7 9 1012.5 1010.0 0.0
11/01:00am 17.8 15.6 9.2 57 4.6 S 11 15 6 8 1012.6 1010.1 0.0
11/12:30am 18.2 15.6 9.3 56 4.8 SSW 13 19 7 10 1012.9 1010.4 0.0
11/12:00am 18.6 15.9 9.1 54 5.1 SSW 13 17 7 9 1012.9 1010.4 0.0
 
Date/Time
EST
Temp
°C
App
Temp
°C
Dew
Point
°C
Rel
Hum
%
Delta-T
°C
Wind Press
QNH
hPa
Press
MSL
hPa
Rain since
9am
mm
Dir  Spd
km/h
Gust
km/h
Spd
kts
Gust
kts
10/11:30pm 18.8 16.3 9.6 55 5.0 SW 13 17 7 9 1012.8 1010.3 0.0
10/11:00pm 19.4 17.6 9.3 52 5.5 SSW 9 11 5 6 1012.8 1010.3 0.0
10/10:30pm 19.4 17.6 9.6 53 5.4 SSW 9 11 5 6 1012.9 1010.4 0.0
10/10:00pm 19.4 17.9 9.3 52 5.5 SSW 7 9 4 5 1012.9 1010.4 0.0
10/09:30pm 19.3 17.9 8.9 51 5.6 SW 6 7 3 4 1013.0 1010.5 0.0
10/09:00pm 19.7 17.9 9.3 51 5.7 SW 9 11 5 6 1013.1 1010.6 0.0
10/08:30pm 19.8 17.7 9.7 52 5.6 WSW 11 20 6 11 1013.0 1010.5 0.0
10/08:00pm 20.2 18.9 9.2 49 6.0 SW 6 7 3 4 1012.7 1010.2 0.0
10/07:30pm 20.4 19.5 9.3 49 6.1 SSW 4 7 2 4 1012.5 1010.0 0.0
10/07:00pm 20.9 20.4 9.5 48 6.3 SSW 2 6 1 3 1012.2 1009.7 0.0
10/06:30pm 21.4 19.9 9.3 46 6.7 SW 7 11 4 6 1012.0 1009.4 0.0
10/06:00pm 21.6 19.4 9.5 46 6.7 SW 11 15 6 8 1011.8 1009.3 0.0
10/05:30pm 22.7 20.0 9.1 42 7.5 SW 13 17 7 9 1011.6 1009.1 0.0
10/05:00pm 24.2 20.9 9.4 39 8.3 SW 17 24 9 13 1011.4 1008.9 0.0
10/04:30pm 25.1 21.0 8.6 35 9.2 WSW 20 28 11 15 1011.1 1008.6 0.0
10/04:00pm 25.5 20.5 8.1 33 9.6 WSW 24 35 13 19 1010.8 1008.3 0.0
10/03:30pm 25.9 21.4 8.4 33 9.7 SW 22 32 12 17 1010.4 1007.8 0.0
10/03:00pm 26.4 22.1 7.9 31 10.2 SW 20 28 11 15 1010.1 1007.6 0.0
10/02:30pm 26.2 21.0 7.3 30 10.3 SW 24 32 13 17 1010.3 1007.7 0.0
10/02:00pm 26.8 22.3 10.1 35 9.6 WSW 24 32 13 17 1010.5 1007.9 0.0
10/01:30pm 26.4 20.9 9.3 34 9.7 SW 28 39 15 21 1010.5 1007.9 0.0
10/01:00pm 26.6 21.3 9.9 35 9.6 WSW 28 33 15 18 1010.8 1008.3 0.0
10/12:30pm 26.5 21.2 9.8 35 9.5 W 28 46 15 25 1011.2 1008.7 0.0
10/12:27pm 26.4 21.1 9.7 35 9.5 W 28 46 15 25 1011.2 1008.7 0.0
10/12:00pm 26.3 22.3 10.5 37 9.1 WNW 22 32 12 17 1011.5 1009.0 0.0
10/11:30am 25.6 22.1 11.0 40 8.5 W 20 32 11 17 1012.2 1009.7 0.0
10/11:00am 25.1 21.5 10.6 40 8.3 W 20 28 11 15 1012.6 1010.1 0.0
10/10:30am 24.5 21.9 12.1 46 7.3 WNW 17 24 9 13 1013.0 1010.5 0.0
10/10:00am 24.0 21.4 12.0 47 7.0 WNW 17 24 9 13 1013.1 1010.6 0.0
10/09:30am 23.1 20.7 11.5 48 6.7 W 15 19 8 10 1013.3 1010.8 0.0
10/09:00am 22.5 20.3 12.2 52 6.0 WNW 15 19 8 10 1013.2 1010.7 0.0
10/08:30am 21.5 19.3 10.9 51 6.0 W 13 19 7 10 1013.2 1010.7 0.0
10/08:00am 21.1 19.8 11.2 53 5.6 WNW 9 11 5 6 1013.0 1010.5 0.0
10/07:30am 19.6 18.6 11.1 58 4.8 WNW 7 9 4 5 1012.7 1010.2 0.0
10/07:00am 18.1 16.9 10.2 60 4.4 W 7 9 4 5 1012.4 1009.9 0.0
10/06:30am 17.2 15.4 9.4 60 4.2 WNW 9 9 5 5 1012.0 1009.4 0.0
10/06:00am 17.1 15.3 9.5 61 4.1 WNW 9 11 5 6 1011.8 1009.3 0.0
10/05:30am 16.6 14.8 9.3 62 3.9 NW 9 11 5 6 1011.6 1009.1 0.0
10/05:00am 17.0 15.1 9.2 60 4.2 NW 9 9 5 5 1011.5 1009.0 0.0
10/04:30am 17.5 15.8 9.7 60 4.2 NNW 9 11 5 6 1011.2 1008.7 0.0
10/04:00am 17.4 15.9 9.3 59 4.4 NW 7 9 4 5 1011.1 1008.6 0.0
10/03:30am 17.0 15.2 9.4 61 4.1 NW 9 9 5 5 1011.1 1008.6 0.0
10/03:00am 17.4 15.5 9.1 58 4.5 WNW 9 11 5 6 1011.1 1008.6 0.0
10/02:30am 17.1 15.2 9.0 59 4.3 WNW 9 11 5 6 1011.2 1008.7 0.0
10/02:00am 17.5 15.8 9.7 60 4.2 WNW 9 11 5 6 1011.3 1008.8 0.0
10/01:30am 17.1 15.0 9.8 62 4.0 NNW 11 13 6 7 1011.4 1008.9 0.0
10/01:00am 18.1 16.4 9.7 58 4.6 NW 9 11 5 6 1011.6 1009.1 0.0
10/12:30am 18.2 16.5 9.8 58 4.6 NW 9 11 5 6 1011.8 1009.3 0.0
10/12:00am 18.4 16.3 9.7 57 4.8 W 11 17 6 9 1011.7 1009.2 0.0
 
Date/Time
EST
Temp
°C
App
Temp
°C
Dew
Point
°C
Rel
Hum
%
Delta-T
°C
Wind Press
QNH
hPa
Press
MSL
hPa
Rain since
9am
mm
Dir  Spd
km/h
Gust
km/h
Spd
kts
Gust
kts
09/11:30pm 18.8 17.4 9.6 55 5.0 W 7 9 4 5 1011.8 1009.3 0.0
09/11:00pm 18.8 18.7 9.3 54 5.2 CALM 0 6 0 3 1012.1 1009.6 0.0
09/10:30pm 19.6 17.9 9.8 53 5.4 NW 9 11 5 6 1012.3 1009.8 0.0
09/10:00pm 19.7 18.4 10.1 54 5.3 NW 7 13 4 7 1012.4 1009.9 0.0
09/09:30pm 19.8 19.1 10.2 54 5.3 NW 4 9 2 5 1012.4 1009.9 0.0
09/09:00pm 19.7 19.8 10.1 54 5.3 CALM 0 0 0 0 1012.3 1009.8 0.0
09/08:30pm 20.0 18.7 9.9 52 5.6 WNW 7 9 4 5 1012.2 1009.7 0.0
09/08:00pm 19.9 18.6 9.8 52 5.6 WNW 7 9 4 5 1012.0 1009.4 0.0
09/07:30pm 20.0 17.6 9.9 52 5.6 WSW 13 17 7 9 1011.6 1009.1 0.0
09/07:00pm 20.2 17.9 10.6 54 5.4 WSW 13 15 7 8 1011.3 1008.8 0.0
09/06:30pm 20.5 18.5 10.3 52 5.7 WSW 11 15 6 8 1011.0 1008.5 0.0
09/06:00pm 21.2 19.1 9.8 48 6.3 WSW 11 17 6 9 1010.8 1008.3 0.0
09/05:30pm 22.6 19.4 10.1 45 7.0 WSW 17 20 9 11 1010.5 1007.9 0.0
09/05:00pm 23.8 20.2 9.8 41 7.9 SW 19 26 10 14 1010.0 1007.5 0.0
09/04:30pm 24.5 20.4 10.0 40 8.2 SW 22 30 12 16 1009.8 1007.3 0.0
09/04:00pm 24.1 19.0 9.3 39 8.3 WSW 26 33 14 18 1009.7 1007.2 0.0
09/03:30pm 25.4 20.8 11.2 41 8.2 WSW 26 39 14 21 1009.6 1007.1 0.0
09/03:00pm 25.0 21.0 10.5 40 8.3 WSW 22 32 12 17 1009.6 1007.1 0.0
09/02:30pm 25.3 20.8 11.5 42 8.0 SW 26 37 14 20 1009.7 1007.2 0.0
09/02:00pm 25.2 20.9 12.1 44 7.7 WSW 26 37 14 20 1009.9 1007.4 0.0
09/01:30pm 24.9 21.4 12.2 45 7.5 WSW 22 32 12 17 1010.3 1007.7 0.0
09/01:00pm 24.3 21.0 12.9 49 6.8 SW 22 32 12 17 1010.6 1008.0 0.0
09/12:30pm 24.0 20.3 12.6 49 6.7 SW 24 35 13 19 1011.0 1008.5 0.0
09/12:00pm 23.8 21.2 13.1 51 6.4 W 19 26 10 14 1011.3 1008.8 0.0
09/11:30am 23.4 20.9 13.6 54 5.9 WSW 19 28 10 15 1012.0 1009.4 0.0
09/11:00am 22.8 20.9 15.1 62 4.7 WSW 19 28 10 15 1012.5 1010.0 0.0
09/10:30am 22.0 21.1 16.9 73 3.2 W 17 24 9 13 1012.8 1010.3 0.0
09/10:00am 20.7 20.1 16.7 78 2.5 WNW 15 20 8 11 1012.9 1010.4 0.0
09/09:30am 20.0 19.5 15.8 77 2.6 WNW 13 20 7 11 1013.0 1010.5 0.0
09/09:00am 18.9 18.1 16.0 83 1.8 WNW 15 20 8 11 1013.0 1010.5 0.2
09/08:30am 17.9 16.8 16.4 91 0.9 NW 17 22 9 12 1013.1 1010.6 0.2
09/08:00am 17.3 16.1 16.0 92 0.8 NW 17 20 9 11 1012.9 1010.4 0.2
09/07:30am 16.7 16.2 15.9 95 0.5 WNW 13 17 7 9 1012.6 1010.1 0.2
09/07:00am 16.0 15.5 15.8 99 0.1 NW 13 17 7 9 1012.1 1009.6 0.2
09/06:30am 15.3 14.9 15.3 100 0.0 NNW 11 13 6 7 1011.5 1009.0 0.2
09/06:00am 15.2 15.2 15.2 100 0.0 NNW 9 11 5 6 1011.1 1008.6 0.2
09/05:30am 15.3 15.3 15.1 99 0.1 NNW 9 11 5 6 1010.9 1008.4 0.2
09/05:00am 15.3 15.6 15.1 99 0.1 NW 7 9 4 5 1010.9 1008.4 0.2
09/04:30am 15.5 16.9 15.5 100 0.0 NNW 2 11 1 6 1010.9 1008.4 0.2
09/04:00am 14.6 16.1 14.6 100 0.0 CALM 0 0 0 0 1010.9 1008.4 0.2
09/03:30am 14.6 16.0 14.4 99 0.1 CALM 0 0 0 0 1010.9 1008.4 0.2
09/03:00am 15.0 16.6 14.8 99 0.1 CALM 0 0 0 0 1011.2 1008.7 0.2
09/02:30am 14.9 15.1 14.7 99 0.1 E 7 9 4 5 1011.2 1008.7 0.2
09/02:00am 14.8 14.2 14.6 99 0.1 E 11 13 6 7 1011.3 1008.8 0.2
09/01:30am 15.8 15.6 15.6 99 0.1 E 11 13 6 7 1011.4 1008.9 0.2
09/01:00am 16.1 16.0 15.9 99 0.1 E 11 13 6 7 1011.5 1009.0 0.2
09/12:30am 16.3 15.9 16.1 99 0.1 E 13 15 7 8 1011.6 1009.1 0.2
09/12:00am 16.7 16.8 16.4 98 0.2 E 11 13 6 7 1011.8 1009.3 0.2
 
Date/Time
EST
Temp
°C
App
Temp
°C
Dew
Point
°C
Rel
Hum
%
Delta-T
°C
Wind Press
QNH
hPa
Press
MSL
hPa
Rain since
9am
mm
Dir  Spd
km/h
Gust
km/h
Spd
kts
Gust
kts
08/11:30pm 16.9 17.0 16.4 97 0.3 ENE 11 13 6 7 1012.0 1009.4 0.2
08/11:00pm 17.2 16.9 16.4 95 0.5 ENE 13 17 7 9 1012.2 1009.7 0.2
08/10:30pm 17.5 17.4 17.0 97 0.3 ENE 13 15 7 8 1012.3 1009.8 0.2
08/10:00pm 17.3 17.5 16.8 97 0.3 E 11 15 6 8 1012.6 1010.1 0.2
08/09:30pm 17.6 17.6 17.1 97 0.3 E 13 17 7 9 1012.5 1010.0 0.2
08/09:00pm 18.1 17.9 16.8 92 0.8 ESE 13 17 7 9 1012.5 1010.0 0.2
08/08:30pm 18.5 18.3 16.7 89 1.1 E 13 15 7 8 1012.3 1009.8 0.2
08/08:00pm 19.1 18.7 17.1 88 1.2 E 15 19 8 10 1012.1 1009.6 0.2
08/07:30pm 19.1 18.6 16.9 87 1.4 E 15 17 8 9 1011.8 1009.3 0.2
08/07:00pm 19.4 19.1 16.4 83 1.9 E 13 17 7 9 1011.4 1008.9 0.2
08/06:30pm 19.9 19.4 16.0 78 2.4 E 13 17 7 9 1011.2 1008.7 0.2
08/06:00pm 21.4 21.3 13.8 62 4.5 SSE 7 9 4 5 1011.0 1008.5 0.2
08/05:30pm 22.1 21.2 13.7 59 5.0 S 11 15 6 8 1010.7 1008.2 0.2
08/05:00pm 22.7 21.7 13.5 56 5.5 S 11 17 6 9 1010.4 1007.8 0.2

Latest Capital City Observations: Canberra | Sydney | Melbourne | Brisbane | Adelaide | Perth | Hobart | Darwin

Other formats

Comma delimited format used in spreadsheet applications
http://www.bom.gov.au/fwo/IDQ60901/IDQ60901.95551.axf

JavaScript Object Notation format (JSON) in row-major order
http://www.bom.gov.au/fwo/IDQ60901/IDQ60901.95551.json

Data quality

Most of these data are generated automatically and are frequently updated. Quality checks on data are not normally performed. It is possible for incorrect values to appear. Refer to information at About Latest Weather Observations and please check the disclaimer before using these data.